IJsselstein, Netherlands
Current Conditions -  °F | °C
As of 8:55 AM on Monday 24 Nov 2014 (Local Time) from EHAM Reporting Station
Few Clouds Few Clouds  
Wind Chill: 43°   Ceiling: Unl
Heat Index: 43°   Visibility: 6mi
Dew Point: 39°   Wind: 1mph
Humidity: 87%   Direction: NA
Pressure: 30.21"   Gusts: NA
Location:  52.02°N, 5.04°E
Report Text: EHAM 240755Z VRB01KT 9999 FEW034 06/04 Q1023 NOSIG
Loading
Personal Weather Stations






























Interactive Weather Map New forecast layout! Learn more

10-Day Weather Forecast

Advertisements
Track Severe Weather on mobile